sensor_id;sensor_type;location;lat;lon;timestamp;P1;durP1;ratioP1;P2;durP2;ratioP2
40717;SDS011;26405;51.850;-2.246;2023-04-29T00:02:18;10.43;;;4.68;;
40717;SDS011;26405;51.850;-2.246;2023-04-29T00:04:43;9.50;;;4.53;;
40717;SDS011;26405;51.850;-2.246;2023-04-29T00:07:08;9.68;;;4.80;;
40717;SDS011;26405;51.850;-2.246;2023-04-29T00:09:34;10.85;;;5.10;;
40717;SDS011;26405;51.850;-2.246;2023-04-29T00:12:00;12.57;;;5.00;;
40717;SDS011;26405;51.850;-2.246;2023-04-29T00:14:26;15.63;;;4.97;;
40717;SDS011;26405;51.850;-2.246;2023-04-29T00:16:51;10.23;;;4.70;;
40717;SDS011;26405;51.850;-2.246;2023-04-29T00:19:17;14.75;;;6.45;;
40717;SDS011;26405;51.850;-2.246;2023-04-29T00:21:42;13.38;;;5.22;;
40717;SDS011;26405;51.850;-2.246;2023-04-29T00:24:08;10.80;;;4.70;;
40717;SDS011;26405;51.850;-2.246;2023-04-29T00:26:33;12.02;;;4.85;;
40717;SDS011;26405;51.850;-2.246;2023-04-29T00:28:59;11.60;;;5.13;;
40717;SDS011;26405;51.850;-2.246;2023-04-29T00:31:29;9.45;;;4.97;;
40717;SDS011;26405;51.850;-2.246;2023-04-29T00:33:56;8.80;;;4.43;;
40717;SDS011;26405;51.850;-2.246;2023-04-29T00:36:22;11.93;;;4.70;;
40717;SDS011;26405;51.850;-2.246;2023-04-29T00:38:47;20.02;;;8.57;;
40717;SDS011;26405;51.850;-2.246;2023-04-29T00:41:14;14.18;;;6.40;;
40717;SDS011;26405;51.850;-2.246;2023-04-29T00:43:39;12.18;;;5.35;;
40717;SDS011;26405;51.850;-2.246;2023-04-29T00:46:04;14.05;;;5.32;;
40717;SDS011;26405;51.850;-2.246;2023-04-29T00:48:33;11.32;;;4.82;;
40717;SDS011;26405;51.850;-2.246;2023-04-29T00:50:58;10.70;;;5.10;;
40717;SDS011;26405;51.850;-2.246;2023-04-29T00:53:23;11.20;;;4.90;;
40717;SDS011;26405;51.850;-2.246;2023-04-29T00:55:49;8.55;;;3.95;;
40717;SDS011;26405;51.850;-2.246;2023-04-29T00:58:16;9.63;;;4.43;;
40717;SDS011;26405;51.850;-2.246;2023-04-29T01:00:42;16.25;;;5.60;;
40717;SDS011;26405;51.850;-2.246;2023-04-29T01:03:08;11.95;;;5.45;;
40717;SDS011;26405;51.850;-2.246;2023-04-29T01:05:33;11.40;;;5.30;;
40717;SDS011;26405;51.850;-2.246;2023-04-29T01:10:31;12.35;;;5.10;;
40717;SDS011;26405;51.850;-2.246;2023-04-29T01:13:06;8.25;;;4.03;;
40717;SDS011;26405;51.850;-2.246;2023-04-29T01:18:19;8.48;;;4.10;;
40717;SDS011;26405;51.850;-2.246;2023-04-29T01:20:45;6.07;;;3.85;;
40717;SDS011;26405;51.850;-2.246;2023-04-29T01:23:11;9.65;;;4.45;;
40717;SDS011;26405;51.850;-2.246;2023-04-29T01:25:36;11.63;;;4.00;;
40717;SDS011;26405;51.850;-2.246;2023-04-29T01:30:49;8.25;;;4.15;;
40717;SDS011;26405;51.850;-2.246;2023-04-29T01:33:23;8.00;;;4.00;;
40717;SDS011;26405;51.850;-2.246;2023-04-29T01:41:20;8.40;;;4.20;;
40717;SDS011;26405;51.850;-2.246;2023-04-29T01:43:49;9.48;;;3.83;;
40717;SDS011;26405;51.850;-2.246;2023-04-29T01:46:16;7.30;;;3.72;;
40717;SDS011;26405;51.850;-2.246;2023-04-29T01:51:07;8.63;;;3.77;;
40717;SDS011;26405;51.850;-2.246;2023-04-29T01:53:34;8.68;;;4.15;;
40717;SDS011;26405;51.850;-2.246;2023-04-29T01:55:59;8.68;;;3.95;;
40717;SDS011;26405;51.850;-2.246;2023-04-29T01:58:25;7.05;;;3.55;;
40717;SDS011;26405;51.850;-2.246;2023-04-29T02:00:50;7.88;;;3.63;;
40717;SDS011;26405;51.850;-2.246;2023-04-29T02:03:15;7.97;;;3.92;;
40717;SDS011;26405;51.850;-2.246;2023-04-29T02:05:41;13.05;;;4.30;;
40717;SDS011;26405;51.850;-2.246;2023-04-29T02:08:07;8.38;;;4.18;;
40717;SDS011;26405;51.850;-2.246;2023-04-29T02:10:32;7.65;;;3.70;;
40717;SDS011;26405;51.850;-2.246;2023-04-29T02:12:57;10.48;;;3.90;;
40717;SDS011;26405;51.850;-2.246;2023-04-29T02:15:27;7.45;;;3.45;;
40717;SDS011;26405;51.850;-2.246;2023-04-29T02:17:52;8.77;;;3.97;;
40717;SDS011;26405;51.850;-2.246;2023-04-29T02:20:18;10.10;;;4.35;;
40717;SDS011;26405;51.850;-2.246;2023-04-29T02:22:43;7.18;;;3.80;;
40717;SDS011;26405;51.850;-2.246;2023-04-29T02:25:09;11.80;;;4.40;;
40717;SDS011;26405;51.850;-2.246;2023-04-29T02:27:35;7.55;;;4.13;;
40717;SDS011;26405;51.850;-2.246;2023-04-29T02:30:00;11.50;;;4.68;;
40717;SDS011;26405;51.850;-2.246;2023-04-29T02:32:28;9.30;;;4.53;;
40717;SDS011;26405;51.850;-2.246;2023-04-29T02:34:55;10.40;;;4.30;;
40717;SDS011;26405;51.850;-2.246;2023-04-29T02:37:20;10.10;;;4.43;;
40717;SDS011;26405;51.850;-2.246;2023-04-29T02:39:46;10.82;;;4.28;;
40717;SDS011;26405;51.850;-2.246;2023-04-29T02:42:11;9.55;;;4.20;;
40717;SDS011;26405;51.850;-2.246;2023-04-29T02:44:38;11.07;;;4.10;;
40717;SDS011;26405;51.850;-2.246;2023-04-29T02:47:04;10.55;;;4.28;;
40717;SDS011;26405;51.850;-2.246;2023-04-29T02:49:29;10.95;;;4.40;;
40717;SDS011;26405;51.850;-2.246;2023-04-29T02:51:54;9.73;;;4.00;;
40717;SDS011;26405;51.850;-2.246;2023-04-29T02:54:20;7.88;;;3.78;;
40717;SDS011;26405;51.850;-2.246;2023-04-29T02:56:45;6.38;;;3.80;;
40717;SDS011;26405;51.850;-2.246;2023-04-29T02:59:11;9.02;;;4.32;;
40717;SDS011;26405;51.850;-2.246;2023-04-29T03:01:36;12.30;;;4.80;;
40717;SDS011;26405;51.850;-2.246;2023-04-29T03:04:02;13.50;;;4.70;;
40717;SDS011;26405;51.850;-2.246;2023-04-29T03:06:28;10.88;;;4.70;;
40717;SDS011;26405;51.850;-2.246;2023-04-29T03:08:53;12.07;;;4.43;;
40717;SDS011;26405;51.850;-2.246;2023-04-29T03:11:19;15.10;;;4.85;;
40717;SDS011;26405;51.850;-2.246;2023-04-29T03:13:44;12.07;;;5.22;;
40717;SDS011;26405;51.850;-2.246;2023-04-29T03:16:11;10.43;;;4.50;;
40717;SDS011;26405;51.850;-2.246;2023-04-29T03:18:38;11.30;;;4.70;;
40717;SDS011;26405;51.850;-2.246;2023-04-29T03:21:03;10.75;;;4.75;;
40717;SDS011;26405;51.850;-2.246;2023-04-29T03:23:29;13.73;;;4.72;;
40717;SDS011;26405;51.850;-2.246;2023-04-29T03:25:54;10.55;;;4.50;;
40717;SDS011;26405;51.850;-2.246;2023-04-29T03:28:19;11.50;;;4.88;;
40717;SDS011;26405;51.850;-2.246;2023-04-29T03:30:45;9.13;;;4.47;;
40717;SDS011;26405;51.850;-2.246;2023-04-29T03:33:10;10.05;;;4.03;;
40717;SDS011;26405;51.850;-2.246;2023-04-29T03:35:35;9.52;;;4.47;;
40717;SDS011;26405;51.850;-2.246;2023-04-29T03:38:01;8.35;;;4.25;;
40717;SDS011;26405;51.850;-2.246;2023-04-29T03:40:26;9.82;;;4.40;;
40717;SDS011;26405;51.850;-2.246;2023-04-29T03:42:51;10.52;;;4.53;;
40717;SDS011;26405;51.850;-2.246;2023-04-29T03:45:16;10.98;;;4.90;;
40717;SDS011;26405;51.850;-2.246;2023-04-29T03:47:42;9.75;;;4.53;;
40717;SDS011;26405;51.850;-2.246;2023-04-29T03:50:07;9.60;;;4.32;;
40717;SDS011;26405;51.850;-2.246;2023-04-29T03:52:33;11.00;;;4.55;;
40717;SDS011;26405;51.850;-2.246;2023-04-29T03:55:00;10.07;;;4.38;;
40717;SDS011;26405;51.850;-2.246;2023-04-29T03:57:26;8.45;;;4.47;;
40717;SDS011;26405;51.850;-2.246;2023-04-29T03:59:51;11.07;;;4.50;;
40717;SDS011;26405;51.850;-2.246;2023-04-29T04:02:16;10.57;;;4.40;;
40717;SDS011;26405;51.850;-2.246;2023-04-29T04:04:42;12.98;;;4.93;;
40717;SDS011;26405;51.850;-2.246;2023-04-29T04:07:10;10.10;;;4.85;;
40717;SDS011;26405;51.850;-2.246;2023-04-29T04:09:36;9.13;;;4.38;;
40717;SDS011;26405;51.850;-2.246;2023-04-29T04:12:01;11.23;;;4.85;;
40717;SDS011;26405;51.850;-2.246;2023-04-29T04:14:27;9.98;;;4.97;;
40717;SDS011;26405;51.850;-2.246;2023-04-29T04:16:53;8.40;;;4.78;;
40717;SDS011;26405;51.850;-2.246;2023-04-29T04:19:18;15.00;;;6.68;;
40717;SDS011;26405;51.850;-2.246;2023-04-29T04:21:44;14.77;;;5.60;;
40717;SDS011;26405;51.850;-2.246;2023-04-29T04:24:09;12.55;;;5.28;;
40717;SDS011;26405;51.850;-2.246;2023-04-29T04:26:34;14.07;;;5.38;;
40717;SDS011;26405;51.850;-2.246;2023-04-29T04:29:00;12.82;;;5.22;;
40717;SDS011;26405;51.850;-2.246;2023-04-29T04:31:25;12.13;;;5.45;;
40717;SDS011;26405;51.850;-2.246;2023-04-29T04:33:52;13.38;;;6.28;;
40717;SDS011;26405;51.850;-2.246;2023-04-29T04:36:17;16.33;;;6.97;;
40717;SDS011;26405;51.850;-2.246;2023-04-29T04:38:44;14.45;;;7.47;;
40717;SDS011;26405;51.850;-2.246;2023-04-29T04:41:10;17.00;;;6.88;;
40717;SDS011;26405;51.850;-2.246;2023-04-29T04:43:36;18.35;;;7.03;;
40717;SDS011;26405;51.850;-2.246;2023-04-29T04:46:14;15.95;;;7.13;;
40717;SDS011;26405;51.850;-2.246;2023-04-29T04:48:41;13.07;;;6.55;;
40717;SDS011;26405;51.850;-2.246;2023-04-29T04:51:09;12.98;;;6.57;;
40717;SDS011;26405;51.850;-2.246;2023-04-29T04:53:35;14.93;;;7.28;;
40717;SDS011;26405;51.850;-2.246;2023-04-29T04:56:01;15.32;;;6.85;;
40717;SDS011;26405;51.850;-2.246;2023-04-29T04:58:26;20.42;;;9.70;;
40717;SDS011;26405;51.850;-2.246;2023-04-29T05:00:52;14.68;;;6.90;;
40717;SDS011;26405;51.850;-2.246;2023-04-29T05:03:17;16.10;;;7.55;;
40717;SDS011;26405;51.850;-2.246;2023-04-29T05:05:42;15.43;;;7.70;;
40717;SDS011;26405;51.850;-2.246;2023-04-29T05:08:08;15.20;;;7.90;;
40717;SDS011;26405;51.850;-2.246;2023-04-29T05:10:36;15.95;;;7.32;;
40717;SDS011;26405;51.850;-2.246;2023-04-29T05:13:01;14.13;;;6.85;;
40717;SDS011;26405;51.850;-2.246;2023-04-29T05:15:27;16.45;;;7.85;;
40717;SDS011;26405;51.850;-2.246;2023-04-29T05:17:55;13.10;;;6.82;;
40717;SDS011;26405;51.850;-2.246;2023-04-29T05:20:20;14.95;;;7.22;;
40717;SDS011;26405;51.850;-2.246;2023-04-29T05:22:47;13.20;;;6.53;;
40717;SDS011;26405;51.850;-2.246;2023-04-29T05:25:12;14.95;;;6.18;;
40717;SDS011;26405;51.850;-2.246;2023-04-29T05:27:38;16.23;;;6.75;;
40717;SDS011;26405;51.850;-2.246;2023-04-29T05:30:04;11.60;;;6.18;;
40717;SDS011;26405;51.850;-2.246;2023-04-29T05:32:30;15.18;;;6.65;;
40717;SDS011;26405;51.850;-2.246;2023-04-29T05:34:55;13.95;;;6.28;;
40717;SDS011;26405;51.850;-2.246;2023-04-29T05:37:20;12.75;;;6.07;;
40717;SDS011;26405;51.850;-2.246;2023-04-29T05:39:46;13.13;;;6.00;;
40717;SDS011;26405;51.850;-2.246;2023-04-29T05:42:11;11.75;;;5.88;;
40717;SDS011;26405;51.850;-2.246;2023-04-29T05:44:36;12.00;;;6.05;;
40717;SDS011;26405;51.850;-2.246;2023-04-29T05:47:02;15.25;;;6.47;;
40717;SDS011;26405;51.850;-2.246;2023-04-29T05:49:28;12.05;;;5.80;;
40717;SDS011;26405;51.850;-2.246;2023-04-29T05:51:53;13.05;;;6.25;;
40717;SDS011;26405;51.850;-2.246;2023-04-29T05:54:18;11.65;;;5.90;;
40717;SDS011;26405;51.850;-2.246;2023-04-29T05:59:11;13.63;;;6.35;;
40717;SDS011;26405;51.850;-2.246;2023-04-29T06:01:36;11.10;;;6.28;;
40717;SDS011;26405;51.850;-2.246;2023-04-29T06:04:02;12.95;;;6.25;;
40717;SDS011;26405;51.850;-2.246;2023-04-29T06:06:28;10.75;;;5.78;;
40717;SDS011;26405;51.850;-2.246;2023-04-29T06:08:53;11.80;;;6.10;;
40717;SDS011;26405;51.850;-2.246;2023-04-29T06:11:18;11.30;;;5.75;;
40717;SDS011;26405;51.850;-2.246;2023-04-29T06:13:44;13.00;;;6.30;;
40717;SDS011;26405;51.850;-2.246;2023-04-29T06:16:10;12.35;;;5.65;;
40717;SDS011;26405;51.850;-2.246;2023-04-29T06:18:35;13.60;;;6.25;;
40717;SDS011;26405;51.850;-2.246;2023-04-29T06:21:02;11.25;;;6.07;;
40717;SDS011;26405;51.850;-2.246;2023-04-29T06:28:21;12.97;;;5.93;;
40717;SDS011;26405;51.850;-2.246;2023-04-29T06:30:47;13.70;;;6.25;;
40717;SDS011;26405;51.850;-2.246;2023-04-29T06:33:13;16.48;;;6.93;;
40717;SDS011;26405;51.850;-2.246;2023-04-29T06:35:38;14.02;;;7.15;;
40717;SDS011;26405;51.850;-2.246;2023-04-29T06:38:18;13.68;;;6.75;;
40717;SDS011;26405;51.850;-2.246;2023-04-29T06:40:43;15.52;;;7.55;;
40717;SDS011;26405;51.850;-2.246;2023-04-29T06:43:09;17.38;;;7.97;;
40717;SDS011;26405;51.850;-2.246;2023-04-29T06:45:34;16.58;;;7.53;;
40717;SDS011;26405;51.850;-2.246;2023-04-29T06:48:00;14.48;;;6.75;;
40717;SDS011;26405;51.850;-2.246;2023-04-29T06:50:25;13.00;;;6.70;;
40717;SDS011;26405;51.850;-2.246;2023-04-29T06:52:52;11.87;;;6.30;;
40717;SDS011;26405;51.850;-2.246;2023-04-29T06:55:17;14.18;;;7.45;;
40717;SDS011;26405;51.850;-2.246;2023-04-29T06:57:42;15.13;;;7.25;;
40717;SDS011;26405;51.850;-2.246;2023-04-29T07:00:08;12.05;;;6.43;;
40717;SDS011;26405;51.850;-2.246;2023-04-29T07:02:33;12.63;;;5.88;;
40717;SDS011;26405;51.850;-2.246;2023-04-29T07:04:58;13.65;;;6.55;;
40717;SDS011;26405;51.850;-2.246;2023-04-29T07:07:24;11.80;;;5.88;;
40717;SDS011;26405;51.850;-2.246;2023-04-29T07:09:49;14.27;;;6.57;;
40717;SDS011;26405;51.850;-2.246;2023-04-29T07:14:41;12.27;;;6.77;;
40717;SDS011;26405;51.850;-2.246;2023-04-29T07:17:07;14.25;;;6.88;;
40717;SDS011;26405;51.850;-2.246;2023-04-29T07:19:32;13.77;;;6.97;;
40717;SDS011;26405;51.850;-2.246;2023-04-29T07:21:58;13.68;;;7.03;;
40717;SDS011;26405;51.850;-2.246;2023-04-29T07:24:23;15.63;;;7.25;;
40717;SDS011;26405;51.850;-2.246;2023-04-29T07:26:49;14.52;;;7.43;;
40717;SDS011;26405;51.850;-2.246;2023-04-29T07:29:14;15.70;;;7.30;;
40717;SDS011;26405;51.850;-2.246;2023-04-29T07:31:39;14.13;;;7.35;;
40717;SDS011;26405;51.850;-2.246;2023-04-29T07:34:05;19.35;;;8.60;;
40717;SDS011;26405;51.850;-2.246;2023-04-29T07:36:30;14.27;;;7.57;;
40717;SDS011;26405;51.850;-2.246;2023-04-29T07:38:57;15.45;;;7.25;;
40717;SDS011;26405;51.850;-2.246;2023-04-29T07:41:23;17.98;;;8.48;;
40717;SDS011;26405;51.850;-2.246;2023-04-29T07:43:49;17.13;;;8.57;;
40717;SDS011;26405;51.850;-2.246;2023-04-29T07:46:14;17.95;;;9.40;;
40717;SDS011;26405;51.850;-2.246;2023-04-29T07:48:43;18.40;;;8.18;;
40717;SDS011;26405;51.850;-2.246;2023-04-29T07:51:13;16.45;;;8.63;;
40717;SDS011;26405;51.850;-2.246;2023-04-29T07:53:38;15.57;;;8.30;;
40717;SDS011;26405;51.850;-2.246;2023-04-29T07:56:06;19.23;;;9.73;;
40717;SDS011;26405;51.850;-2.246;2023-04-29T07:58:33;18.42;;;8.68;;
40717;SDS011;26405;51.850;-2.246;2023-04-29T08:03:24;17.60;;;9.57;;
40717;SDS011;26405;51.850;-2.246;2023-04-29T08:05:50;22.30;;;10.65;;
40717;SDS011;26405;51.850;-2.246;2023-04-29T08:08:17;19.42;;;10.88;;
40717;SDS011;26405;51.850;-2.246;2023-04-29T08:10:42;18.85;;;10.32;;
40717;SDS011;26405;51.850;-2.246;2023-04-29T08:13:08;19.40;;;9.93;;
40717;SDS011;26405;51.850;-2.246;2023-04-29T08:15:33;18.95;;;10.30;;
40717;SDS011;26405;51.850;-2.246;2023-04-29T08:17:58;19.65;;;10.52;;
40717;SDS011;26405;51.850;-2.246;2023-04-29T08:20:24;20.15;;;11.55;;
40717;SDS011;26405;51.850;-2.246;2023-04-29T08:22:49;19.70;;;10.83;;
40717;SDS011;26405;51.850;-2.246;2023-04-29T08:25:15;21.33;;;11.13;;
40717;SDS011;26405;51.850;-2.246;2023-04-29T08:27:43;20.85;;;11.77;;
40717;SDS011;26405;51.850;-2.246;2023-04-29T08:30:10;20.10;;;11.48;;
40717;SDS011;26405;51.850;-2.246;2023-04-29T08:32:35;22.15;;;12.25;;
40717;SDS011;26405;51.850;-2.246;2023-04-29T08:35:00;19.97;;;11.43;;
40717;SDS011;26405;51.850;-2.246;2023-04-29T08:37:26;20.55;;;12.25;;
40717;SDS011;26405;51.850;-2.246;2023-04-29T08:39:51;20.55;;;11.43;;
40717;SDS011;26405;51.850;-2.246;2023-04-29T08:42:17;19.90;;;11.83;;
40717;SDS011;26405;51.850;-2.246;2023-04-29T08:44:46;20.90;;;11.80;;
40717;SDS011;26405;51.850;-2.246;2023-04-29T08:47:12;20.63;;;11.30;;
40717;SDS011;26405;51.850;-2.246;2023-04-29T08:49:39;20.45;;;11.75;;
40717;SDS011;26405;51.850;-2.246;2023-04-29T08:52:05;22.13;;;13.18;;
40717;SDS011;26405;51.850;-2.246;2023-04-29T08:54:31;24.38;;;13.52;;
40717;SDS011;26405;51.850;-2.246;2023-04-29T08:56:57;20.40;;;12.20;;
40717;SDS011;26405;51.850;-2.246;2023-04-29T08:59:23;21.73;;;12.55;;
40717;SDS011;26405;51.850;-2.246;2023-04-29T09:01:50;21.50;;;12.57;;
40717;SDS011;26405;51.850;-2.246;2023-04-29T09:04:26;21.80;;;13.13;;
40717;SDS011;26405;51.850;-2.246;2023-04-29T09:06:57;21.33;;;13.38;;
40717;SDS011;26405;51.850;-2.246;2023-04-29T09:09:23;21.63;;;13.40;;
40717;SDS011;26405;51.850;-2.246;2023-04-29T09:11:49;20.37;;;11.97;;
40717;SDS011;26405;51.850;-2.246;2023-04-29T09:14:15;22.30;;;13.47;;
40717;SDS011;26405;51.850;-2.246;2023-04-29T09:16:40;22.88;;;12.45;;
40717;SDS011;26405;51.850;-2.246;2023-04-29T09:19:06;21.87;;;13.23;;
40717;SDS011;26405;51.850;-2.246;2023-04-29T09:21:31;23.53;;;13.77;;
40717;SDS011;26405;51.850;-2.246;2023-04-29T09:23:59;22.60;;;12.57;;
40717;SDS011;26405;51.850;-2.246;2023-04-29T09:26:25;22.90;;;12.98;;
40717;SDS011;26405;51.850;-2.246;2023-04-29T09:29:10;22.13;;;14.20;;
40717;SDS011;26405;51.850;-2.246;2023-04-29T09:34:06;23.95;;;14.45;;
40717;SDS011;26405;51.850;-2.246;2023-04-29T09:36:38;23.37;;;14.60;;
40717;SDS011;26405;51.850;-2.246;2023-04-29T09:39:06;22.05;;;13.43;;
40717;SDS011;26405;51.850;-2.246;2023-04-29T09:41:37;20.33;;;12.02;;
40717;SDS011;26405;51.850;-2.246;2023-04-29T09:44:07;20.55;;;12.52;;
40717;SDS011;26405;51.850;-2.246;2023-04-29T09:46:33;21.33;;;13.30;;
40717;SDS011;26405;51.850;-2.246;2023-04-29T09:48:59;21.73;;;13.07;;
40717;SDS011;26405;51.850;-2.246;2023-04-29T09:51:24;21.10;;;12.10;;
40717;SDS011;26405;51.850;-2.246;2023-04-29T09:53:50;21.50;;;12.67;;
40717;SDS011;26405;51.850;-2.246;2023-04-29T09:56:15;20.93;;;12.37;;
40717;SDS011;26405;51.850;-2.246;2023-04-29T09:58:40;21.80;;;13.27;;
40717;SDS011;26405;51.850;-2.246;2023-04-29T10:01:06;22.00;;;13.53;;
40717;SDS011;26405;51.850;-2.246;2023-04-29T10:03:33;21.38;;;13.65;;
40717;SDS011;26405;51.850;-2.246;2023-04-29T10:05:59;21.35;;;12.20;;
40717;SDS011;26405;51.850;-2.246;2023-04-29T10:08:25;22.23;;;13.07;;
40717;SDS011;26405;51.850;-2.246;2023-04-29T10:10:51;20.55;;;11.10;;
40717;SDS011;26405;51.850;-2.246;2023-04-29T10:13:22;20.40;;;12.20;;
40717;SDS011;26405;51.850;-2.246;2023-04-29T10:15:48;20.17;;;12.23;;
40717;SDS011;26405;51.850;-2.246;2023-04-29T10:18:20;23.70;;;12.77;;
40717;SDS011;26405;51.850;-2.246;2023-04-29T10:20:46;21.77;;;13.75;;
40717;SDS011;26405;51.850;-2.246;2023-04-29T10:23:12;21.07;;;12.67;;
40717;SDS011;26405;51.850;-2.246;2023-04-29T10:25:38;22.90;;;14.07;;
40717;SDS011;26405;51.850;-2.246;2023-04-29T10:28:07;21.75;;;13.23;;
40717;SDS011;26405;51.850;-2.246;2023-04-29T10:30:35;22.17;;;13.80;;
40717;SDS011;26405;51.850;-2.246;2023-04-29T10:33:00;20.70;;;12.30;;
40717;SDS011;26405;51.850;-2.246;2023-04-29T10:35:27;19.42;;;11.88;;
40717;SDS011;26405;51.850;-2.246;2023-04-29T10:37:56;21.20;;;12.90;;
40717;SDS011;26405;51.850;-2.246;2023-04-29T10:40:30;20.95;;;12.35;;
40717;SDS011;26405;51.850;-2.246;2023-04-29T10:43:00;20.60;;;12.50;;
40717;SDS011;26405;51.850;-2.246;2023-04-29T10:45:29;21.10;;;12.63;;
40717;SDS011;26405;51.850;-2.246;2023-04-29T10:53:01;19.33;;;10.55;;
40717;SDS011;26405;51.850;-2.246;2023-04-29T10:55:27;16.90;;;9.50;;
40717;SDS011;26405;51.850;-2.246;2023-04-29T10:57:52;18.50;;;9.67;;
40717;SDS011;26405;51.850;-2.246;2023-04-29T11:00:30;16.80;;;8.70;;
40717;SDS011;26405;51.850;-2.246;2023-04-29T11:02:57;16.42;;;8.77;;
40717;SDS011;26405;51.850;-2.246;2023-04-29T11:05:35;18.83;;;10.32;;
40717;SDS011;26405;51.850;-2.246;2023-04-29T11:08:35;17.77;;;8.13;;
40717;SDS011;26405;51.850;-2.246;2023-04-29T11:10:53;17.27;;;9.18;;
40717;SDS011;26405;51.850;-2.246;2023-04-29T11:13:28;19.60;;;9.43;;
40717;SDS011;26405;51.850;-2.246;2023-04-29T11:16:09;19.10;;;9.93;;
40717;SDS011;26405;51.850;-2.246;2023-04-29T11:18:35;15.55;;;8.32;;
40717;SDS011;26405;51.850;-2.246;2023-04-29T11:23:29;17.30;;;8.82;;
40717;SDS011;26405;51.850;-2.246;2023-04-29T11:25:55;17.27;;;8.45;;
40717;SDS011;26405;51.850;-2.246;2023-04-29T11:28:24;14.40;;;7.60;;
40717;SDS011;26405;51.850;-2.246;2023-04-29T11:30:51;17.02;;;8.20;;
40717;SDS011;26405;51.850;-2.246;2023-04-29T11:35:47;16.70;;;7.90;;
40717;SDS011;26405;51.850;-2.246;2023-04-29T11:38:12;14.90;;;7.80;;
40717;SDS011;26405;51.850;-2.246;2023-04-29T11:40:47;17.87;;;8.90;;
40717;SDS011;26405;51.850;-2.246;2023-04-29T11:43:15;15.77;;;8.48;;
40717;SDS011;26405;51.850;-2.246;2023-04-29T11:45:41;16.75;;;8.30;;
40717;SDS011;26405;51.850;-2.246;2023-04-29T11:48:08;14.63;;;7.25;;
40717;SDS011;26405;51.850;-2.246;2023-04-29T11:50:34;18.10;;;8.27;;
40717;SDS011;26405;51.850;-2.246;2023-04-29T11:53:00;19.20;;;9.27;;
40717;SDS011;26405;51.850;-2.246;2023-04-29T11:55:26;18.00;;;8.60;;
40717;SDS011;26405;51.850;-2.246;2023-04-29T11:57:51;18.90;;;9.77;;
40717;SDS011;26405;51.850;-2.246;2023-04-29T12:00:18;17.73;;;9.55;;
40717;SDS011;26405;51.850;-2.246;2023-04-29T12:02:45;17.17;;;8.48;;
40717;SDS011;26405;51.850;-2.246;2023-04-29T12:05:10;14.97;;;8.27;;
40717;SDS011;26405;51.850;-2.246;2023-04-29T12:07:37;14.25;;;7.55;;
40717;SDS011;26405;51.850;-2.246;2023-04-29T12:10:02;14.82;;;7.57;;
40717;SDS011;26405;51.850;-2.246;2023-04-29T12:12:31;16.40;;;8.57;;
40717;SDS011;26405;51.850;-2.246;2023-04-29T12:15:00;16.42;;;8.48;;
40717;SDS011;26405;51.850;-2.246;2023-04-29T12:17:28;15.90;;;8.38;;
40717;SDS011;26405;51.850;-2.246;2023-04-29T12:19:55;20.50;;;10.25;;
40717;SDS011;26405;51.850;-2.246;2023-04-29T12:22:21;17.20;;;8.20;;
40717;SDS011;26405;51.850;-2.246;2023-04-29T12:24:46;15.77;;;7.80;;
40717;SDS011;26405;51.850;-2.246;2023-04-29T12:27:11;13.97;;;7.17;;
40717;SDS011;26405;51.850;-2.246;2023-04-29T12:29:38;13.77;;;7.40;;
40717;SDS011;26405;51.850;-2.246;2023-04-29T12:32:04;14.10;;;6.68;;
40717;SDS011;26405;51.850;-2.246;2023-04-29T12:34:30;11.13;;;5.90;;
40717;SDS011;26405;51.850;-2.246;2023-04-29T12:36:59;11.93;;;6.10;;
40717;SDS011;26405;51.850;-2.246;2023-04-29T12:39:26;12.32;;;5.78;;
40717;SDS011;26405;51.850;-2.246;2023-04-29T12:41:56;10.85;;;6.05;;
40717;SDS011;26405;51.850;-2.246;2023-04-29T12:44:22;10.20;;;5.70;;
40717;SDS011;26405;51.850;-2.246;2023-04-29T12:46:47;11.70;;;5.97;;
40717;SDS011;26405;51.850;-2.246;2023-04-29T12:49:13;13.37;;;6.10;;
40717;SDS011;26405;51.850;-2.246;2023-04-29T12:51:38;16.97;;;9.03;;
40717;SDS011;26405;51.850;-2.246;2023-04-29T12:54:04;16.95;;;8.40;;
40717;SDS011;26405;51.850;-2.246;2023-04-29T12:59:04;16.85;;;7.80;;
40717;SDS011;26405;51.850;-2.246;2023-04-29T13:01:35;15.98;;;8.05;;
40717;SDS011;26405;51.850;-2.246;2023-04-29T13:04:02;15.95;;;7.85;;
40717;SDS011;26405;51.850;-2.246;2023-04-29T13:06:29;13.05;;;7.05;;
40717;SDS011;26405;51.850;-2.246;2023-04-29T13:08:55;15.15;;;7.43;;
40717;SDS011;26405;51.850;-2.246;2023-04-29T13:11:20;16.63;;;8.23;;
40717;SDS011;26405;51.850;-2.246;2023-04-29T13:13:45;16.93;;;8.93;;
40717;SDS011;26405;51.850;-2.246;2023-04-29T13:16:11;18.23;;;8.83;;
40717;SDS011;26405;51.850;-2.246;2023-04-29T13:18:36;16.90;;;9.13;;
40717;SDS011;26405;51.850;-2.246;2023-04-29T13:21:01;20.27;;;10.10;;
40717;SDS011;26405;51.850;-2.246;2023-04-29T13:23:27;15.97;;;8.60;;
40717;SDS011;26405;51.850;-2.246;2023-04-29T13:25:52;16.80;;;9.17;;
40717;SDS011;26405;51.850;-2.246;2023-04-29T13:28:17;17.03;;;8.03;;
40717;SDS011;26405;51.850;-2.246;2023-04-29T13:30:42;18.10;;;8.53;;
40717;SDS011;26405;51.850;-2.246;2023-04-29T13:33:08;15.77;;;8.43;;
40717;SDS011;26405;51.850;-2.246;2023-04-29T13:35:34;15.43;;;8.10;;
40717;SDS011;26405;51.850;-2.246;2023-04-29T13:38:00;18.60;;;8.33;;
40717;SDS011;26405;51.850;-2.246;2023-04-29T13:40:26;14.27;;;7.50;;
40717;SDS011;26405;51.850;-2.246;2023-04-29T13:42:51;18.67;;;9.87;;
40717;SDS011;26405;51.850;-2.246;2023-04-29T13:45:16;16.07;;;8.70;;
40717;SDS011;26405;51.850;-2.246;2023-04-29T13:47:42;15.63;;;8.50;;
40717;SDS011;26405;51.850;-2.246;2023-04-29T13:50:08;14.52;;;7.78;;
40717;SDS011;26405;51.850;-2.246;2023-04-29T13:52:33;16.27;;;8.63;;
40717;SDS011;26405;51.850;-2.246;2023-04-29T13:54:59;17.07;;;9.10;;
40717;SDS011;26405;51.850;-2.246;2023-04-29T13:57:24;15.40;;;7.47;;
40717;SDS011;26405;51.850;-2.246;2023-04-29T13:59:51;16.42;;;8.30;;
40717;SDS011;26405;51.850;-2.246;2023-04-29T14:02:19;16.30;;;8.40;;
40717;SDS011;26405;51.850;-2.246;2023-04-29T14:04:44;15.87;;;8.70;;
40717;SDS011;26405;51.850;-2.246;2023-04-29T14:07:09;17.83;;;9.10;;
40717;SDS011;26405;51.850;-2.246;2023-04-29T14:09:35;15.73;;;8.63;;
40717;SDS011;26405;51.850;-2.246;2023-04-29T14:12:00;15.10;;;8.20;;
40717;SDS011;26405;51.850;-2.246;2023-04-29T14:14:26;15.07;;;8.40;;
40717;SDS011;26405;51.850;-2.246;2023-04-29T14:16:51;13.07;;;6.30;;
40717;SDS011;26405;51.850;-2.246;2023-04-29T14:19:17;15.20;;;6.50;;
40717;SDS011;26405;51.850;-2.246;2023-04-29T14:21:42;14.80;;;8.23;;
40717;SDS011;26405;51.850;-2.246;2023-04-29T14:24:07;14.70;;;6.63;;
40717;SDS011;26405;51.850;-2.246;2023-04-29T14:26:33;11.77;;;6.13;;
40717;SDS011;26405;51.850;-2.246;2023-04-29T14:28:58;12.93;;;6.67;;
40717;SDS011;26405;51.850;-2.246;2023-04-29T14:31:24;10.67;;;5.97;;
40717;SDS011;26405;51.850;-2.246;2023-04-29T14:33:51;13.68;;;6.68;;
40717;SDS011;26405;51.850;-2.246;2023-04-29T14:36:17;10.23;;;5.00;;
40717;SDS011;26405;51.850;-2.246;2023-04-29T14:38:42;12.17;;;6.20;;
40717;SDS011;26405;51.850;-2.246;2023-04-29T14:41:07;12.67;;;6.23;;
40717;SDS011;26405;51.850;-2.246;2023-04-29T14:43:34;10.60;;;5.47;;
40717;SDS011;26405;51.850;-2.246;2023-04-29T14:48:24;11.40;;;5.20;;
40717;SDS011;26405;51.850;-2.246;2023-04-29T14:50:50;5.77;;;3.63;;
40717;SDS011;26405;51.850;-2.246;2023-04-29T14:53:15;8.50;;;4.60;;
40717;SDS011;26405;51.850;-2.246;2023-04-29T14:55:41;8.53;;;4.60;;
40717;SDS011;26405;51.850;-2.246;2023-04-29T14:58:06;8.20;;;4.47;;
40717;SDS011;26405;51.850;-2.246;2023-04-29T15:00:33;9.25;;;4.25;;
40717;SDS011;26405;51.850;-2.246;2023-04-29T15:02:59;6.70;;;3.77;;